Decoded Metar for LEAL (ALICANTE in SPAIN) (IATA:ALC) | Meteo·Mobile Aviation Weather
aviador You're here:

LEAL Decoded Metar

ALICANTE in SPAIN
Report Time2019-01-17 23:30:00
UTC Time2019-01-17 23:48:28
Flight Rules vfr VFR
Wind030° at 02 kt
W.Decomp.*RWY 10: 0.7 kt HW 1.9 kt LCW
W.Rank030° ranks 29
Current wind is below 030° avg. (5.2)
Visibility9999 m
Phenomena:Light Rain
Clouds:Few 030 Hf
Broken 060 Hf
Expected CloudBase > 800 ft AGL from Temp-Dew spread
Ceiling6,000 ft
Temp10°C (ISA -5)
Dew Point08°C (88% RH)
AAT8.8°C
QNH1019 hPa
Density Alt-531 ft
Elevation102 ft
Report Wrong Elevation
Raw Report
LEAL 172330Z 03002KT 9999 -RA FEW030 BKN060 10/08 Q1019 NOSIG=

Extra information for LEAL:More info

Metar Taf Metar & Taf Last 4 Metars F.Rules Stats Wind Profile Meteogram Temp Stats Airport Information Weather charts Add Link Nearby VenuesMetar ALERT Operation Metar Decoded Social comments